createdAt,value
2022-08-29T00:02:16.383Z,3.65
2022-08-29T00:05:02.746Z,3.75
2022-08-29T00:07:47.815Z,3.60
2022-08-29T00:10:34.937Z,3.90
2022-08-29T00:13:21.149Z,4.03
2022-08-29T00:16:06.709Z,3.55
2022-08-29T00:18:52.170Z,3.45
2022-08-29T00:21:37.066Z,4.00
2022-08-29T00:24:22.364Z,3.75
2022-08-29T00:27:07.130Z,3.67
2022-08-29T00:29:52.473Z,3.90
2022-08-29T00:32:37.603Z,3.97
2022-08-29T00:35:25.874Z,3.63
2022-08-29T00:38:14.162Z,3.65
2022-08-29T00:40:59.909Z,3.70
2022-08-29T00:43:45.657Z,3.95
2022-08-29T00:46:42.880Z,3.97
2022-08-29T00:49:44.424Z,3.30
2022-08-29T00:52:42.732Z,4.18
2022-08-29T00:55:32.715Z,3.75
2022-08-29T00:58:25.200Z,3.70
2022-08-29T01:01:10.690Z,3.95
2022-08-29T01:03:56.244Z,4.07
2022-08-29T01:06:43.009Z,3.80
2022-08-29T01:09:29.379Z,4.07
2022-08-29T01:12:15.521Z,4.13
2022-08-29T01:15:10.209Z,3.60
2022-08-29T01:17:56.357Z,4.10
2022-08-29T01:21:09.286Z,4.15
2022-08-29T01:24:09.878Z,3.55
2022-08-29T01:26:55.798Z,3.60
2022-08-29T01:29:41.201Z,3.80
2022-08-29T01:32:27.203Z,3.83
2022-08-29T01:35:12.607Z,3.95
2022-08-29T01:37:57.729Z,3.70
2022-08-29T01:40:42.615Z,3.65
2022-08-29T01:43:29.667Z,3.95
2022-08-29T01:46:17.895Z,4.10
2022-08-29T01:49:05.518Z,3.80
2022-08-29T01:51:51.356Z,3.35
2022-08-29T01:54:36.673Z,3.88
2022-08-29T01:57:22.158Z,3.72
2022-08-29T02:00:10.097Z,3.58
2022-08-29T02:02:55.305Z,4.05
2022-08-29T02:05:40.539Z,4.03
2022-08-29T02:08:25.258Z,3.88
2022-08-29T02:11:11.521Z,3.80
2022-08-29T02:13:58.788Z,3.80
2022-08-29T02:16:44.201Z,4.25
2022-08-29T02:19:29.457Z,4.25
2022-08-29T02:22:14.459Z,3.90
2022-08-29T02:24:59.568Z,3.70
2022-08-29T02:27:45.028Z,4.13
2022-08-29T02:30:30.379Z,3.72
2022-08-29T02:33:17.077Z,4.00
2022-08-29T02:36:06.239Z,4.50
2022-08-29T02:38:51.613Z,4.38
2022-08-29T02:41:37.095Z,4.07
2022-08-29T02:44:22.415Z,4.20
2022-08-29T02:47:07.863Z,4.30
2022-08-29T02:49:53.241Z,3.90
2022-08-29T02:52:39.942Z,4.32
2022-08-29T02:55:25.630Z,4.40
2022-08-29T02:58:11.017Z,4.25
2022-08-29T03:00:56.525Z,3.78
2022-08-29T03:03:41.898Z,4.05
2022-08-29T03:06:27.205Z,4.38
2022-08-29T03:09:12.428Z,4.05
2022-08-29T03:11:57.496Z,4.20
2022-08-29T03:14:43.005Z,3.92
2022-08-29T03:17:28.486Z,4.00
2022-08-29T03:20:17.300Z,4.05
2022-08-29T03:23:04.533Z,4.07
2022-08-29T03:25:50.005Z,4.10
2022-08-29T03:28:35.267Z,4.22
2022-08-29T03:31:21.671Z,4.35
2022-08-29T03:34:06.928Z,4.15
2022-08-29T03:36:52.017Z,4.57
2022-08-29T03:39:37.458Z,3.90
2022-08-29T03:42:22.612Z,4.18
2022-08-29T03:45:10.485Z,4.60
2022-08-29T03:47:55.333Z,4.10
2022-08-29T03:50:40.915Z,4.38
2022-08-29T03:53:26.344Z,3.75
2022-08-29T03:56:18.371Z,4.47
2022-08-29T03:59:04.155Z,4.80
2022-08-29T04:01:50.110Z,4.13
2022-08-29T04:04:35.220Z,4.00
2022-08-29T04:07:20.258Z,4.53
2022-08-29T04:10:07.175Z,4.32
2022-08-29T04:12:54.857Z,4.50
2022-08-29T04:15:42.304Z,4.93
2022-08-29T04:18:27.669Z,4.65
2022-08-29T04:21:13.419Z,4.88
2022-08-29T04:23:58.800Z,4.97
2022-08-29T04:26:44.141Z,5.07
2022-08-29T04:29:29.581Z,5.25
2022-08-29T04:32:16.635Z,4.95
2022-08-29T04:35:02.324Z,4.90
2022-08-29T04:37:48.152Z,4.22
2022-08-29T04:40:32.956Z,4.63
2022-08-29T04:43:18.407Z,5.03
2022-08-29T04:46:03.847Z,5.18
2022-08-29T04:48:49.027Z,4.95
2022-08-29T04:51:35.514Z,4.88
2022-08-29T04:54:20.918Z,4.70
2022-08-29T04:57:06.320Z,5.35
2022-08-29T04:59:58.249Z,4.50
2022-08-29T05:02:44.383Z,5.15
2022-08-29T05:05:29.753Z,5.28
2022-08-29T05:08:15.162Z,4.78
2022-08-29T05:11:00.627Z,4.90
2022-08-29T05:13:47.685Z,5.38
2022-08-29T05:16:33.091Z,5.50
2022-08-29T05:19:17.919Z,5.10
2022-08-29T05:22:03.484Z,5.45
2022-08-29T05:24:49.975Z,5.40
2022-08-29T05:27:35.253Z,5.50
2022-08-29T05:30:39.402Z,5.50
2022-08-29T05:33:24.700Z,6.03
2022-08-29T05:36:10.115Z,5.55
2022-08-29T05:38:55.506Z,6.10
2022-08-29T05:41:40.936Z,6.25
2022-08-29T05:44:32.831Z,6.80
2022-08-29T05:47:20.654Z,6.18
2022-08-29T05:50:06.087Z,6.25
2022-08-29T05:52:50.855Z,5.88
2022-08-29T05:55:43.998Z,6.32
2022-08-29T05:58:29.143Z,6.22
2022-08-29T06:01:26.361Z,6.38
2022-08-29T06:04:11.572Z,6.18
2022-08-29T06:06:56.375Z,6.25
2022-08-29T06:09:43.184Z,5.93
2022-08-29T06:12:28.638Z,6.75
2022-08-29T06:15:14.045Z,7.15
2022-08-29T06:17:59.649Z,7.18
2022-08-29T06:20:44.564Z,7.38
2022-08-29T06:23:29.979Z,7.55
2022-08-29T06:26:16.600Z,7.43
2022-08-29T06:29:08.876Z,7.97
2022-08-29T06:31:56.807Z,8.52
2022-08-29T06:34:42.091Z,8.32
2022-08-29T06:37:27.402Z,8.27
2022-08-29T06:40:12.664Z,9.50
2022-08-29T06:42:58.259Z,8.48
2022-08-29T06:45:43.980Z,8.70
2022-08-29T06:48:29.794Z,9.10
2022-08-29T06:51:14.761Z,9.10
2022-08-29T06:54:01.274Z,9.10
2022-08-29T06:56:47.834Z,9.40
2022-08-29T06:59:32.848Z,9.07
2022-08-29T07:02:18.399Z,9.02
2022-08-29T07:05:04.554Z,8.13
2022-08-29T07:07:51.367Z,8.43
2022-08-29T07:10:36.778Z,8.60
2022-08-29T07:13:22.201Z,7.70
2022-08-29T07:16:12.877Z,8.57
2022-08-29T07:18:58.291Z,8.18
2022-08-29T07:21:43.680Z,8.35
2022-08-29T07:24:29.205Z,7.85
2022-08-29T07:27:15.147Z,7.70
2022-08-29T07:30:00.627Z,7.60
2022-08-29T07:32:45.517Z,8.07
2022-08-29T07:35:31.045Z,8.10
2022-08-29T07:38:16.258Z,8.10
2022-08-29T07:41:05.063Z,7.40
2022-08-29T07:43:50.316Z,7.28
2022-08-29T07:46:35.798Z,7.63
2022-08-29T07:49:20.815Z,7.05
2022-08-29T07:52:06.162Z,6.78
2022-08-29T07:54:51.162Z,6.90
2022-08-29T07:57:36.991Z,6.85
2022-08-29T08:00:25.401Z,6.95
2022-08-29T08:03:10.797Z,6.28
2022-08-29T08:05:56.475Z,5.95
2022-08-29T08:08:42.177Z,6.30
2022-08-29T08:54:00.906Z,4.63
2022-08-29T08:56:49.040Z,4.30
2022-08-29T08:59:38.148Z,3.80
2022-08-29T09:02:33.735Z,3.65
2022-08-29T09:05:49.318Z,3.53
2022-08-29T09:08:52.537Z,3.33
2022-08-29T09:11:52.188Z,4.05
2022-08-29T09:14:59.345Z,3.25
2022-08-29T09:17:50.720Z,3.30
2022-08-29T09:20:38.728Z,3.50
2022-08-29T09:23:42.163Z,3.60
2022-08-29T09:26:29.642Z,3.70
2022-08-29T09:29:15.021Z,3.80
2022-08-29T09:32:12.581Z,3.30
2022-08-29T09:35:08.377Z,3.38
2022-08-29T09:38:17.475Z,3.30
2022-08-29T09:41:07.397Z,3.22
2022-08-29T09:43:53.018Z,3.50
2022-08-29T09:46:37.958Z,3.08
2022-08-29T09:49:23.421Z,3.03
2022-08-29T09:52:24.891Z,2.90
2022-08-29T09:55:35.241Z,2.92
2022-08-29T09:58:20.293Z,4.13
2022-08-29T10:01:16.248Z,3.28
2022-08-29T10:04:04.509Z,3.15
2022-08-29T10:06:52.787Z,3.00
2022-08-29T10:09:38.148Z,2.90
2022-08-29T10:12:42.504Z,2.90
2022-08-29T10:15:50.002Z,2.83
2022-08-29T10:18:50.211Z,3.10
2022-08-29T10:22:04.978Z,3.20
2022-08-29T10:24:59.391Z,2.92
2022-08-29T10:28:00.925Z,3.00
2022-08-29T10:30:54.769Z,3.00
2022-08-29T10:33:46.043Z,2.67
2022-08-29T10:36:35.289Z,3.00
2022-08-29T10:39:45.717Z,2.97
2022-08-29T10:42:34.488Z,3.22
2022-08-29T10:45:39.082Z,4.90
2022-08-29T10:48:29.868Z,3.55
2022-08-29T10:51:36.723Z,3.05
2022-08-29T10:54:28.250Z,2.90
2022-08-29T10:57:25.304Z,2.80
2022-08-29T11:00:21.828Z,2.88
2022-08-29T11:03:16.861Z,3.00
2022-08-29T11:06:09.309Z,3.25
2022-08-29T11:09:08.904Z,3.10
2022-08-29T11:12:09.328Z,3.10
2022-08-29T11:15:06.201Z,3.13
2022-08-29T11:18:09.083Z,3.17
2022-08-29T11:21:00.269Z,2.67
2022-08-29T11:23:47.984Z,3.35
2022-08-29T11:26:45.347Z,2.60
2022-08-29T11:30:12.702Z,3.03
2022-08-29T11:33:27.160Z,2.75
2022-08-29T11:36:17.689Z,2.92
2022-08-29T11:39:05.807Z,2.90
2022-08-29T11:41:58.562Z,2.70
2022-08-29T11:44:50.964Z,2.80
2022-08-29T11:47:45.356Z,3.28
2022-08-29T11:50:34.940Z,2.83
2022-08-29T11:53:20.540Z,2.50
2022-08-29T11:56:14.808Z,2.58
2022-08-29T11:58:59.693Z,2.55
2022-08-29T12:02:00.309Z,2.70
2022-08-29T12:05:02.317Z,2.67
2022-08-29T12:07:49.644Z,2.83
2022-08-29T12:10:56.472Z,3.00
2022-08-29T12:13:44.797Z,2.78
2022-08-29T12:16:51.025Z,2.80
2022-08-29T12:19:48.235Z,2.60
2022-08-29T12:22:47.382Z,2.70
2022-08-29T12:26:09.460Z,3.00
2022-08-29T12:29:00.183Z,2.70
2022-08-29T12:32:17.939Z,2.53
2022-08-29T12:35:20.057Z,2.67
2022-08-29T12:38:20.238Z,2.60
2022-08-29T12:41:40.569Z,2.90
2022-08-29T12:44:29.889Z,3.00
2022-08-29T12:47:41.864Z,2.45
2022-08-29T12:50:34.644Z,2.60
2022-08-29T12:53:31.348Z,2.60
2022-08-29T12:56:20.353Z,2.75
2022-08-29T12:59:05.712Z,3.00
2022-08-29T13:01:54.365Z,2.60
2022-08-29T13:04:43.162Z,2.50
2022-08-29T13:07:29.485Z,2.50
2022-08-29T13:10:18.890Z,2.55
2022-08-29T13:13:11.167Z,2.30
2022-08-29T13:15:59.779Z,2.78
2022-08-29T13:19:00.566Z,2.67
2022-08-29T13:21:50.197Z,2.50
2022-08-29T13:24:35.542Z,2.60
2022-08-29T13:27:22.093Z,2.45
2022-08-29T13:30:07.748Z,2.45
2022-08-29T13:32:53.929Z,2.45
2022-08-29T13:35:39.239Z,2.83
2022-08-29T13:38:27.774Z,2.70
2022-08-29T13:41:27.804Z,2.42
2022-08-29T13:44:48.713Z,2.33
2022-08-29T13:47:49.708Z,2.42
2022-08-29T13:50:34.674Z,2.55
2022-08-29T13:53:19.868Z,2.50
2022-08-29T13:56:32.846Z,2.35
2022-08-29T13:59:21.898Z,2.40
2022-08-29T14:02:09.329Z,2.17
2022-08-29T14:04:56.090Z,2.30
2022-08-29T14:07:43.977Z,2.47
2022-08-29T14:10:29.238Z,2.55
2022-08-29T14:13:14.721Z,2.50
2022-08-29T14:15:59.780Z,2.40
2022-08-29T14:18:45.092Z,2.20
2022-08-29T14:21:31.160Z,2.30
2022-08-29T14:24:16.173Z,2.20
2022-08-29T14:27:03.203Z,2.70
2022-08-29T14:29:48.949Z,2.80
2022-08-29T14:32:34.368Z,2.42
2022-08-29T14:35:26.731Z,2.00
2022-08-29T14:38:17.200Z,2.15
2022-08-29T14:41:02.209Z,2.38
2022-08-29T14:43:47.721Z,2.05
2022-08-29T14:46:33.257Z,2.35
2022-08-29T14:49:19.097Z,2.40
2022-08-29T14:52:05.805Z,2.40
2022-08-29T14:54:51.060Z,2.28
2022-08-29T14:57:36.164Z,2.60
2022-08-29T15:00:24.493Z,2.30
2022-08-29T15:03:09.653Z,2.33
2022-08-29T15:05:54.980Z,2.10
2022-08-29T15:08:40.574Z,2.40
2022-08-29T15:11:25.688Z,2.20
2022-08-29T15:14:10.890Z,2.20
2022-08-29T15:16:56.264Z,2.17
2022-08-29T15:22:46.350Z,2.40
2022-08-29T15:25:32.395Z,2.33
2022-08-29T15:28:17.744Z,2.35
2022-08-29T15:31:03.087Z,2.17
2022-08-29T15:33:48.333Z,2.35
2022-08-29T15:36:33.504Z,2.10
2022-08-29T15:39:18.803Z,2.40
2022-08-29T15:42:07.351Z,2.22
2022-08-29T15:44:52.648Z,2.20
2022-08-29T15:47:38.844Z,2.30
2022-08-29T15:50:24.468Z,2.22
2022-08-29T15:53:09.961Z,2.10
2022-08-29T15:55:55.201Z,2.10
2022-08-29T15:58:40.491Z,2.25
2022-08-29T16:01:25.869Z,2.40
2022-08-29T16:04:12.505Z,1.80
2022-08-29T16:06:57.680Z,1.80
2022-08-29T16:09:44.830Z,2.20
2022-08-29T16:12:30.969Z,2.10
2022-08-29T16:15:16.480Z,1.95
2022-08-29T16:18:02.107Z,2.20
2022-08-29T16:20:47.475Z,2.00
2022-08-29T16:23:35.396Z,2.10
2022-08-29T16:26:20.752Z,2.25
2022-08-29T16:29:07.950Z,2.30
2022-08-29T16:31:52.987Z,2.00
2022-08-29T16:34:37.904Z,2.28
2022-08-29T16:37:22.832Z,2.00
2022-08-29T16:40:09.956Z,1.88
2022-08-29T16:42:55.407Z,1.90
2022-08-29T16:45:40.854Z,2.30
2022-08-29T16:48:26.397Z,2.00
2022-08-29T16:51:12.168Z,2.03
2022-08-29T16:54:04.203Z,2.40
2022-08-29T16:56:49.431Z,1.85
2022-08-29T16:59:34.673Z,2.10
2022-08-29T17:02:22.765Z,2.22
2022-08-29T17:05:07.997Z,2.40
2022-08-29T17:07:53.381Z,2.20
2022-08-29T17:10:38.713Z,2.50
2022-08-29T17:13:23.789Z,2.10
2022-08-29T17:16:10.352Z,2.10
2022-08-29T17:18:55.798Z,2.20
2022-08-29T17:21:41.958Z,2.30
2022-08-29T17:24:27.047Z,2.10
2022-08-29T17:27:15.411Z,2.10
2022-08-29T17:30:05.253Z,2.33
2022-08-29T17:32:50.330Z,2.45
2022-08-29T17:35:35.986Z,2.22
2022-08-29T17:38:21.842Z,2.25
2022-08-29T17:41:14.685Z,2.50
2022-08-29T17:44:00.704Z,2.13
2022-08-29T17:46:45.676Z,2.42
2022-08-29T17:49:31.017Z,2.38
2022-08-29T17:52:16.733Z,2.40
2022-08-29T17:55:07.006Z,2.38
2022-08-29T17:57:52.824Z,2.10
2022-08-29T18:00:39.952Z,2.35
2022-08-29T18:03:24.812Z,2.50
2022-08-29T18:06:10.619Z,2.35
2022-08-29T18:08:58.646Z,2.63
2022-08-29T18:11:45.947Z,2.38
2022-08-29T18:14:31.572Z,2.40
2022-08-29T18:17:17.002Z,2.45
2022-08-29T18:20:04.601Z,2.53
2022-08-29T18:22:49.794Z,2.25
2022-08-29T18:25:34.761Z,2.50
2022-08-29T18:28:20.424Z,2.30
2022-08-29T18:31:05.666Z,2.47
2022-08-29T18:34:06.445Z,2.50
2022-08-29T18:36:51.415Z,2.88
2022-08-29T18:39:36.603Z,2.60
2022-08-29T18:42:39.437Z,3.00
2022-08-29T18:45:25.065Z,2.50
2022-08-29T18:48:10.834Z,2.70
2022-08-29T18:50:57.548Z,2.95
2022-08-29T18:53:42.890Z,3.28
2022-08-29T18:56:28.181Z,2.90
2022-08-29T18:59:13.945Z,3.17
2022-08-29T19:01:59.112Z,3.33
2022-08-29T19:04:44.425Z,3.03
2022-08-29T19:07:29.325Z,3.00
2022-08-29T19:10:14.330Z,3.10
2022-08-29T19:12:59.715Z,3.00
2022-08-29T19:15:45.607Z,3.30
2022-08-29T19:18:31.147Z,3.00
2022-08-29T19:21:16.641Z,3.00
2022-08-29T19:24:01.644Z,2.90
2022-08-29T19:26:46.985Z,2.90
2022-08-29T19:29:32.247Z,3.30
2022-08-29T19:32:17.643Z,3.17
2022-08-29T19:35:03.301Z,3.40
2022-08-29T19:37:48.887Z,3.17
2022-08-29T19:40:38.954Z,3.13
2022-08-29T19:43:30.900Z,3.35
2022-08-29T19:46:19.759Z,3.22
2022-08-29T19:51:52.016Z,3.30
2022-08-29T19:54:36.935Z,3.03
2022-08-29T19:57:22.208Z,3.20
2022-08-29T20:00:13.615Z,3.30
2022-08-29T20:02:59.060Z,3.20
2022-08-29T20:05:44.538Z,3.35
2022-08-29T20:08:31.302Z,2.95
2022-08-29T20:11:19.452Z,3.10
2022-08-29T20:14:04.497Z,3.65
2022-08-29T20:16:49.332Z,3.22
2022-08-29T20:19:36.633Z,3.45
2022-08-29T20:22:24.583Z,3.25
2022-08-29T20:25:10.918Z,3.33
2022-08-29T20:27:55.947Z,3.45
2022-08-29T20:30:40.973Z,3.63
2022-08-29T20:33:26.659Z,3.72
2022-08-29T20:36:11.984Z,3.60
2022-08-29T20:38:57.190Z,3.50
2022-08-29T20:41:51.289Z,3.60
2022-08-29T20:44:37.283Z,3.50
2022-08-29T20:47:23.167Z,3.83
2022-08-29T20:50:08.585Z,3.50
2022-08-29T20:52:53.605Z,3.63
2022-08-29T20:55:40.386Z,3.35
2022-08-29T20:58:25.721Z,3.53
2022-08-29T21:01:14.502Z,3.42
2022-08-29T21:04:00.320Z,3.33
2022-08-29T21:06:45.752Z,3.42
2022-08-29T21:09:30.915Z,3.33
2022-08-29T21:12:16.898Z,3.33
2022-08-29T21:15:02.316Z,3.47
2022-08-29T21:17:47.710Z,3.20
2022-08-29T21:20:36.975Z,3.38
2022-08-29T21:23:27.461Z,3.10
2022-08-29T21:26:13.051Z,3.33
2022-08-29T21:28:58.705Z,3.20
2022-08-29T21:31:44.394Z,3.10
2022-08-29T21:34:29.638Z,2.67
2022-08-29T21:37:15.294Z,2.80
2022-08-29T21:40:03.166Z,2.63
2022-08-29T21:42:48.609Z,2.63
2022-08-29T21:45:34.636Z,2.60
2022-08-29T21:48:19.704Z,2.83
2022-08-29T21:51:04.760Z,2.72
2022-08-29T21:53:52.743Z,2.40
2022-08-29T21:56:38.124Z,2.53
2022-08-29T21:59:23.669Z,2.55
2022-08-29T22:02:09.016Z,2.40
2022-08-29T22:04:54.355Z,2.38
2022-08-29T22:07:40.593Z,2.53
2022-08-29T22:10:30.922Z,2.50
2022-08-29T22:13:16.686Z,2.33
2022-08-29T22:16:02.348Z,2.33
2022-08-29T22:18:47.600Z,2.30
2022-08-29T22:21:40.278Z,2.30
2022-08-29T22:24:25.475Z,2.33
2022-08-29T22:27:10.909Z,2.10
2022-08-29T22:29:56.353Z,2.22
2022-08-29T22:32:42.729Z,2.20
2022-08-29T22:35:38.248Z,2.30
2022-08-29T22:38:23.584Z,2.05
2022-08-29T22:41:13.277Z,2.22
2022-08-29T22:44:35.833Z,2.25
2022-08-29T22:47:04.032Z,2.10
2022-08-29T22:49:49.287Z,2.08
2022-08-29T22:52:35.747Z,2.10
2022-08-29T22:58:05.551Z,1.80
2022-08-29T23:00:50.997Z,1.90
2022-08-29T23:03:36.304Z,2.17
2022-08-29T23:06:22.992Z,2.00
2022-08-29T23:09:07.931Z,2.20
2022-08-29T23:11:54.188Z,1.70
2022-08-29T23:14:41.205Z,1.73
2022-08-29T23:17:26.392Z,1.80
2022-08-29T23:20:13.632Z,2.00
2022-08-29T23:22:58.692Z,1.83
2022-08-29T23:25:43.537Z,1.98
2022-08-29T23:28:28.467Z,2.00
2022-08-29T23:31:17.657Z,1.88
2022-08-29T23:34:02.832Z,1.70
2022-08-29T23:36:47.872Z,1.90
2022-08-29T23:39:32.897Z,1.80
2022-08-29T23:42:18.220Z,1.90
2022-08-29T23:45:03.857Z,1.83
2022-08-29T23:47:49.254Z,1.98
2022-08-29T23:50:34.434Z,2.10
2022-08-29T23:53:21.463Z,1.80
2022-08-29T23:56:16.333Z,1.85
2022-08-29T23:59:01.808Z,1.90
